sensor_id;sensor_type;location;lat;lon;timestamp;pressure;altitude;pressure_sealevel;temperature;humidity
34921;BME280;21128;50.016;20.002;2023-05-09T00:00:30;99949.59;;;4.13;95.29
34921;BME280;21128;50.016;20.002;2023-05-09T00:03:12;99939.23;;;4.12;96.32
34921;BME280;21128;50.016;20.002;2023-05-09T00:05:40;99945.31;;;4.12;96.07
34921;BME280;21128;50.016;20.002;2023-05-09T00:08:07;99946.20;;;4.11;96.50
34921;BME280;21128;50.016;20.002;2023-05-09T00:10:36;99940.23;;;4.09;96.99
34921;BME280;21128;50.016;20.002;2023-05-09T00:13:03;99948.97;;;4.08;96.14
34921;BME280;21128;50.016;20.002;2023-05-09T00:15:30;99948.20;;;4.06;97.26
34921;BME280;21128;50.016;20.002;2023-05-09T00:17:57;99944.77;;;4.06;96.98
34921;BME280;21128;50.016;20.002;2023-05-09T00:20:24;99943.92;;;4.05;97.03
34921;BME280;21128;50.016;20.002;2023-05-09T00:22:51;99940.41;;;4.06;97.89
34921;BME280;21128;50.016;20.002;2023-05-09T00:25:19;99936.88;;;4.07;96.83
34921;BME280;21128;50.016;20.002;2023-05-09T00:27:46;99935.13;;;4.08;96.85
34921;BME280;21128;50.016;20.002;2023-05-09T00:30:12;99932.72;;;4.03;97.36
34921;BME280;21128;50.016;20.002;2023-05-09T00:32:39;99936.25;;;4.02;97.22
34921;BME280;21128;50.016;20.002;2023-05-09T00:35:07;99937.33;;;3.98;97.55
34921;BME280;21128;50.016;20.002;2023-05-09T00:37:35;99938.33;;;3.95;97.90
34921;BME280;21128;50.016;20.002;2023-05-09T00:40:04;99935.02;;;3.92;97.78
34921;BME280;21128;50.016;20.002;2023-05-09T00:42:32;99929.12;;;3.88;97.21
34921;BME280;21128;50.016;20.002;2023-05-09T00:44:59;99931.86;;;3.85;97.94
34921;BME280;21128;50.016;20.002;2023-05-09T00:47:27;99924.13;;;3.84;98.64
34921;BME280;21128;50.016;20.002;2023-05-09T00:49:56;99926.05;;;3.80;99.05
34921;BME280;21128;50.016;20.002;2023-05-09T00:52:24;99927.81;;;3.80;98.53
34921;BME280;21128;50.016;20.002;2023-05-09T00:54:53;99921.81;;;3.78;98.33
34921;BME280;21128;50.016;20.002;2023-05-09T00:57:23;99927.09;;;3.76;98.79
34921;BME280;21128;50.016;20.002;2023-05-09T00:59:50;99927.25;;;3.73;99.41
34921;BME280;21128;50.016;20.002;2023-05-09T01:02:17;99930.89;;;3.69;99.34
34921;BME280;21128;50.016;20.002;2023-05-09T01:04:45;99930.13;;;3.67;99.56
34921;BME280;21128;50.016;20.002;2023-05-09T01:07:34;99931.13;;;3.64;99.84
34921;BME280;21128;50.016;20.002;2023-05-09T01:10:09;99929.56;;;3.60;99.53
34921;BME280;21128;50.016;20.002;2023-05-09T01:12:48;99923.61;;;3.58;100.00
34921;BME280;21128;50.016;20.002;2023-05-09T01:18:11;99923.88;;;3.52;100.00
34921;BME280;21128;50.016;20.002;2023-05-09T01:20:45;99919.68;;;3.50;100.00
34921;BME280;21128;50.016;20.002;2023-05-09T01:30:54;99913.00;;;3.44;100.00
34921;BME280;21128;50.016;20.002;2023-05-09T01:33:23;99913.23;;;3.39;100.00
34921;BME280;21128;50.016;20.002;2023-05-09T01:35:58;99913.38;;;3.36;100.00
34921;BME280;21128;50.016;20.002;2023-05-09T01:38:28;99922.98;;;3.34;100.00
34921;BME280;21128;50.016;20.002;2023-05-09T01:40:57;99918.01;;;3.30;100.00
34921;BME280;21128;50.016;20.002;2023-05-09T01:43:27;99921.64;;;3.26;100.00
34921;BME280;21128;50.016;20.002;2023-05-09T01:45:56;99915.83;;;3.21;100.00
34921;BME280;21128;50.016;20.002;2023-05-09T01:48:24;99916.94;;;3.15;100.00
34921;BME280;21128;50.016;20.002;2023-05-09T01:50:53;99913.66;;;3.12;100.00
34921;BME280;21128;50.016;20.002;2023-05-09T01:53:21;99906.82;;;3.09;100.00
34921;BME280;21128;50.016;20.002;2023-05-09T01:55:50;99915.75;;;3.03;100.00
34921;BME280;21128;50.016;20.002;2023-05-09T01:58:19;99911.52;;;3.01;100.00
34921;BME280;21128;50.016;20.002;2023-05-09T02:00:47;99903.11;;;2.96;100.00
34921;BME280;21128;50.016;20.002;2023-05-09T02:03:16;99911.08;;;2.91;100.00
34921;BME280;21128;50.016;20.002;2023-05-09T02:05:45;99899.94;;;2.89;100.00
34921;BME280;21128;50.016;20.002;2023-05-09T02:08:14;99899.09;;;2.89;100.00
34921;BME280;21128;50.016;20.002;2023-05-09T02:10:43;99896.61;;;2.86;100.00
34921;BME280;21128;50.016;20.002;2023-05-09T02:13:11;99897.59;;;2.83;100.00
34921;BME280;21128;50.016;20.002;2023-05-09T02:15:38;99902.94;;;2.80;100.00
34921;BME280;21128;50.016;20.002;2023-05-09T02:18:05;99906.44;;;2.79;100.00
34921;BME280;21128;50.016;20.002;2023-05-09T02:20:32;99900.34;;;2.80;100.00
34921;BME280;21128;50.016;20.002;2023-05-09T02:23:02;99903.84;;;2.79;100.00
34921;BME280;21128;50.016;20.002;2023-05-09T02:25:31;99896.98;;;2.78;100.00
34921;BME280;21128;50.016;20.002;2023-05-09T02:27:59;99897.93;;;2.75;100.00
34921;BME280;21128;50.016;20.002;2023-05-09T02:30:31;99892.81;;;2.74;100.00
34921;BME280;21128;50.016;20.002;2023-05-09T02:33:02;99890.22;;;2.74;100.00
34921;BME280;21128;50.016;20.002;2023-05-09T02:35:32;99891.97;;;2.73;100.00
34921;BME280;21128;50.016;20.002;2023-05-09T02:38:00;99888.61;;;2.71;100.00
34921;BME280;21128;50.016;20.002;2023-05-09T02:40:28;99896.39;;;2.71;100.00
34921;BME280;21128;50.016;20.002;2023-05-09T02:42:56;99893.91;;;2.68;100.00
34921;BME280;21128;50.016;20.002;2023-05-09T02:45:23;99894.83;;;2.67;100.00
34921;BME280;21128;50.016;20.002;2023-05-09T02:47:50;99888.09;;;2.63;100.00
34921;BME280;21128;50.016;20.002;2023-05-09T02:50:18;99889.02;;;2.62;100.00
34921;BME280;21128;50.016;20.002;2023-05-09T02:52:45;99884.77;;;2.60;100.00
34921;BME280;21128;50.016;20.002;2023-05-09T02:55:11;99894.45;;;2.56;100.00
34921;BME280;21128;50.016;20.002;2023-05-09T02:57:38;99895.30;;;2.57;100.00
34921;BME280;21128;50.016;20.002;2023-05-09T03:00:06;99899.64;;;2.56;100.00
34921;BME280;21128;50.016;20.002;2023-05-09T03:02:37;99897.13;;;2.54;100.00
34921;BME280;21128;50.016;20.002;2023-05-09T03:05:05;99896.28;;;2.54;100.00
34921;BME280;21128;50.016;20.002;2023-05-09T03:07:32;99900.63;;;2.53;100.00
34921;BME280;21128;50.016;20.002;2023-05-09T03:09:59;99900.73;;;2.50;100.00
34921;BME280;21128;50.016;20.002;2023-05-09T03:12:26;99895.70;;;2.47;100.00
34921;BME280;21128;50.016;20.002;2023-05-09T03:14:52;99901.91;;;2.43;100.00
34921;BME280;21128;50.016;20.002;2023-05-09T03:17:19;99899.45;;;2.40;100.00
34921;BME280;21128;50.016;20.002;2023-05-09T03:19:47;99892.66;;;2.38;100.00
34921;BME280;21128;50.016;20.002;2023-05-09T03:22:14;99892.77;;;2.35;100.00
34921;BME280;21128;50.016;20.002;2023-05-09T03:24:41;99894.52;;;2.34;100.00
34921;BME280;21128;50.016;20.002;2023-05-09T03:27:09;99898.93;;;2.32;100.00
34921;BME280;21128;50.016;20.002;2023-05-09T03:29:36;99892.91;;;2.32;100.00
34921;BME280;21128;50.016;20.002;2023-05-09T03:32:03;99897.18;;;2.33;100.00
34921;BME280;21128;50.016;20.002;2023-05-09T03:34:30;99896.27;;;2.34;100.00
34921;BME280;21128;50.016;20.002;2023-05-09T03:36:58;99898.79;;;2.35;100.00
34921;BME280;21128;50.016;20.002;2023-05-09T03:39:25;99904.78;;;2.37;100.00
34921;BME280;21128;50.016;20.002;2023-05-09T03:41:52;99899.52;;;2.39;100.00
34921;BME280;21128;50.016;20.002;2023-05-09T03:44:19;99899.45;;;2.40;100.00
34921;BME280;21128;50.016;20.002;2023-05-09T03:46:46;99897.62;;;2.42;100.00
34921;BME280;21128;50.016;20.002;2023-05-09T03:49:13;99906.22;;;2.44;100.00
34921;BME280;21128;50.016;20.002;2023-05-09T03:51:40;99900.04;;;2.47;100.00
34921;BME280;21128;50.016;20.002;2023-05-09T03:54:07;99900.88;;;2.47;100.00
34921;BME280;21128;50.016;20.002;2023-05-09T03:56:34;99907.61;;;2.51;100.00
34921;BME280;21128;50.016;20.002;2023-05-09T03:59:00;99909.19;;;2.56;100.00
34921;BME280;21128;50.016;20.002;2023-05-09T04:01:27;99909.88;;;2.59;100.00
34921;BME280;21128;50.016;20.002;2023-05-09T04:03:54;99906.12;;;2.66;100.00
34921;BME280;21128;50.016;20.002;2023-05-09T04:06:23;99895.63;;;2.69;100.00
34921;BME280;21128;50.016;20.002;2023-05-09T04:08:50;99904.03;;;2.74;100.00
34921;BME280;21128;50.016;20.002;2023-05-09T04:11:17;99897.86;;;2.77;100.00
34921;BME280;21128;50.016;20.002;2023-05-09T04:13:44;99899.28;;;2.84;100.00
34921;BME280;21128;50.016;20.002;2023-05-09T04:16:11;99903.22;;;2.93;100.00
34921;BME280;21128;50.016;20.002;2023-05-09T04:18:38;99908.15;;;2.99;100.00
34921;BME280;21128;50.016;20.002;2023-05-09T04:21:08;99913.00;;;3.06;100.00
34921;BME280;21128;50.016;20.002;2023-05-09T04:23:35;99908.38;;;3.13;100.00
34921;BME280;21128;50.016;20.002;2023-05-09T04:26:02;99905.56;;;3.18;100.00
34921;BME280;21128;50.016;20.002;2023-05-09T04:28:28;99903.61;;;3.23;100.00
34921;BME280;21128;50.016;20.002;2023-05-09T04:30:56;99906.78;;;3.29;100.00
34921;BME280;21128;50.016;20.002;2023-05-09T04:33:23;99898.68;;;3.35;100.00
34921;BME280;21128;50.016;20.002;2023-05-09T04:35:50;99902.56;;;3.46;100.00
34921;BME280;21128;50.016;20.002;2023-05-09T04:38:17;99906.33;;;3.57;100.00
34921;BME280;21128;50.016;20.002;2023-05-09T04:40:44;99903.09;;;3.71;100.00
34921;BME280;21128;50.016;20.002;2023-05-09T04:43:11;99894.85;;;3.80;100.00
34921;BME280;21128;50.016;20.002;2023-05-09T04:45:38;99900.37;;;3.91;100.00
34921;BME280;21128;50.016;20.002;2023-05-09T04:48:06;99898.91;;;4.03;100.00
34921;BME280;21128;50.016;20.002;2023-05-09T04:50:33;99899.17;;;4.16;100.00
34921;BME280;21128;50.016;20.002;2023-05-09T04:53:00;99898.62;;;4.27;100.00
34921;BME280;21128;50.016;20.002;2023-05-09T04:55:27;99896.57;;;4.33;100.00
34921;BME280;21128;50.016;20.002;2023-05-09T04:57:53;99902.39;;;4.38;100.00
34921;BME280;21128;50.016;20.002;2023-05-09T05:00:20;99903.83;;;4.44;100.00
34921;BME280;21128;50.016;20.002;2023-05-09T05:02:48;99897.48;;;4.49;100.00
34921;BME280;21128;50.016;20.002;2023-05-09T05:05:15;99898.94;;;4.55;100.00
34921;BME280;21128;50.016;20.002;2023-05-09T05:07:42;99900.98;;;4.66;100.00
34921;BME280;21128;50.016;20.002;2023-05-09T05:10:09;99897.69;;;4.79;100.00
34921;BME280;21128;50.016;20.002;2023-05-09T05:12:36;99899.36;;;4.80;100.00
34921;BME280;21128;50.016;20.002;2023-05-09T05:15:04;99897.95;;;4.91;100.00
34921;BME280;21128;50.016;20.002;2023-05-09T05:17:31;99905.37;;;4.98;100.00
34921;BME280;21128;50.016;20.002;2023-05-09T05:19:58;99904.03;;;5.07;100.00
34921;BME280;21128;50.016;20.002;2023-05-09T05:22:24;99896.48;;;5.18;100.00
34921;BME280;21128;50.016;20.002;2023-05-09T05:24:51;99903.71;;;5.29;100.00
34921;BME280;21128;50.016;20.002;2023-05-09T05:27:18;99894.82;;;5.33;100.00
34921;BME280;21128;50.016;20.002;2023-05-09T05:29:45;99893.39;;;5.43;100.00
34921;BME280;21128;50.016;20.002;2023-05-09T05:32:12;99887.76;;;5.51;100.00
34921;BME280;21128;50.016;20.002;2023-05-09T05:34:39;99896.59;;;5.64;100.00
34921;BME280;21128;50.016;20.002;2023-05-09T05:37:06;99895.81;;;5.78;100.00
34921;BME280;21128;50.016;20.002;2023-05-09T05:39:33;99892.47;;;5.91;100.00
34921;BME280;21128;50.016;20.002;2023-05-09T05:42:00;99891.41;;;6.10;100.00
34921;BME280;21128;50.016;20.002;2023-05-09T05:44:27;99880.73;;;6.29;100.00
34921;BME280;21128;50.016;20.002;2023-05-09T05:46:54;99880.03;;;6.41;100.00
34921;BME280;21128;50.016;20.002;2023-05-09T05:49:21;99877.36;;;6.57;100.00
34921;BME280;21128;50.016;20.002;2023-05-09T05:51:50;99870.29;;;6.73;100.00
34921;BME280;21128;50.016;20.002;2023-05-09T05:54:17;99874.95;;;6.82;100.00
34921;BME280;21128;50.016;20.002;2023-05-09T05:56:44;99873.34;;;6.80;100.00
34921;BME280;21128;50.016;20.002;2023-05-09T05:59:11;99867.02;;;6.84;100.00
34921;BME280;21128;50.016;20.002;2023-05-09T06:01:38;99875.12;;;6.79;100.00
34921;BME280;21128;50.016;20.002;2023-05-09T06:04:05;99876.73;;;6.82;100.00
34921;BME280;21128;50.016;20.002;2023-05-09T06:06:32;99877.84;;;6.92;100.00
34921;BME280;21128;50.016;20.002;2023-05-09T06:08:59;99879.05;;;7.00;100.00
34921;BME280;21128;50.016;20.002;2023-05-09T06:11:26;99880.63;;;7.17;100.00
34921;BME280;21128;50.016;20.002;2023-05-09T06:13:53;99868.02;;;7.24;99.57
34921;BME280;21128;50.016;20.002;2023-05-09T06:16:20;99874.83;;;7.26;98.99
34921;BME280;21128;50.016;20.002;2023-05-09T06:18:47;99876.30;;;7.30;98.64
34921;BME280;21128;50.016;20.002;2023-05-09T06:21:14;99868.08;;;7.37;98.26
34921;BME280;21128;50.016;20.002;2023-05-09T06:23:41;99866.27;;;7.51;98.26
34921;BME280;21128;50.016;20.002;2023-05-09T06:26:08;99870.33;;;7.70;98.46
34921;BME280;21128;50.016;20.002;2023-05-09T06:28:35;99862.43;;;7.84;97.83
34921;BME280;21128;50.016;20.002;2023-05-09T06:31:03;99860.67;;;7.97;97.26
34921;BME280;21128;50.016;20.002;2023-05-09T06:33:30;99865.12;;;8.09;96.50
34921;BME280;21128;50.016;20.002;2023-05-09T06:35:58;99869.09;;;8.15;95.17
34921;BME280;21128;50.016;20.002;2023-05-09T06:38:25;99859.05;;;8.22;94.76
34921;BME280;21128;50.016;20.002;2023-05-09T06:40:52;99863.48;;;8.34;95.14
34921;BME280;21128;50.016;20.002;2023-05-09T06:43:19;99866.14;;;8.46;93.97
34921;BME280;21128;50.016;20.002;2023-05-09T06:45:46;99857.77;;;8.54;93.15
34921;BME280;21128;50.016;20.002;2023-05-09T06:48:13;99858.08;;;8.62;91.75
34921;BME280;21128;50.016;20.002;2023-05-09T06:50:40;99850.64;;;8.69;92.10
34921;BME280;21128;50.016;20.002;2023-05-09T06:53:07;99857.23;;;8.87;91.68
34921;BME280;21128;50.016;20.002;2023-05-09T06:55:35;99851.42;;;9.08;91.19
34921;BME280;21128;50.016;20.002;2023-05-09T06:58:02;99841.03;;;9.19;86.90
34921;BME280;21128;50.016;20.002;2023-05-09T07:00:29;99839.73;;;9.24;88.21
34921;BME280;21128;50.016;20.002;2023-05-09T07:02:56;99847.81;;;9.34;85.17
34921;BME280;21128;50.016;20.002;2023-05-09T07:05:23;99839.83;;;9.36;85.57
34921;BME280;21128;50.016;20.002;2023-05-09T07:07:50;99839.40;;;9.42;83.41
34921;BME280;21128;50.016;20.002;2023-05-09T07:10:17;99832.97;;;9.46;83.02
34921;BME280;21128;50.016;20.002;2023-05-09T07:12:44;99834.80;;;9.56;82.93
34921;BME280;21128;50.016;20.002;2023-05-09T07:15:11;99836.88;;;9.64;81.74
34921;BME280;21128;50.016;20.002;2023-05-09T07:17:38;99832.27;;;9.68;81.95
34921;BME280;21128;50.016;20.002;2023-05-09T07:20:06;99822.75;;;9.78;82.13
34921;BME280;21128;50.016;20.002;2023-05-09T07:22:33;99820.05;;;9.91;82.05
34921;BME280;21128;50.016;20.002;2023-05-09T07:25:00;99822.81;;;10.00;79.83
34921;BME280;21128;50.016;20.002;2023-05-09T07:27:27;99816.52;;;10.03;80.13
34921;BME280;21128;50.016;20.002;2023-05-09T07:29:54;99817.37;;;10.14;79.24
34921;BME280;21128;50.016;20.002;2023-05-09T07:32:21;99801.58;;;10.27;77.98
34921;BME280;21128;50.016;20.002;2023-05-09T07:34:48;99807.55;;;10.40;78.00
34921;BME280;21128;50.016;20.002;2023-05-09T07:37:15;99814.63;;;10.51;75.22
34921;BME280;21128;50.016;20.002;2023-05-09T07:39:42;99804.59;;;10.56;74.89
34921;BME280;21128;50.016;20.002;2023-05-09T07:42:09;99807.46;;;10.64;72.01
34921;BME280;21128;50.016;20.002;2023-05-09T07:44:36;99805.78;;;10.75;72.85
34921;BME280;21128;50.016;20.002;2023-05-09T07:47:03;99807.59;;;10.85;71.77
34921;BME280;21128;50.016;20.002;2023-05-09T07:49:31;99797.19;;;10.95;70.18
34921;BME280;21128;50.016;20.002;2023-05-09T07:51:58;99799.09;;;11.04;70.67
34921;BME280;21128;50.016;20.002;2023-05-09T07:54:25;99795.11;;;11.21;71.72
34921;BME280;21128;50.016;20.002;2023-05-09T07:56:52;99788.23;;;11.41;70.01
34921;BME280;21128;50.016;20.002;2023-05-09T07:59:20;99794.19;;;11.54;69.41
34921;BME280;21128;50.016;20.002;2023-05-09T08:01:47;99787.20;;;11.64;68.24
34921;BME280;21128;50.016;20.002;2023-05-09T08:04:14;99790.05;;;11.72;67.85
34921;BME280;21128;50.016;20.002;2023-05-09T08:06:41;99777.95;;;11.81;67.25
34921;BME280;21128;50.016;20.002;2023-05-09T08:09:08;99777.75;;;11.94;66.63
34921;BME280;21128;50.016;20.002;2023-05-09T08:11:36;99782.14;;;12.04;66.37
34921;BME280;21128;50.016;20.002;2023-05-09T08:14:03;99772.23;;;12.18;64.64
34921;BME280;21128;50.016;20.002;2023-05-09T08:16:29;99781.61;;;12.31;62.70
34921;BME280;21128;50.016;20.002;2023-05-09T08:18:56;99780.78;;;12.31;61.11
34921;BME280;21128;50.016;20.002;2023-05-09T08:21:23;99775.83;;;12.37;62.05
34921;BME280;21128;50.016;20.002;2023-05-09T08:23:51;99758.39;;;12.46;61.38
34921;BME280;21128;50.016;20.002;2023-05-09T08:26:18;99765.51;;;12.55;62.41
34921;BME280;21128;50.016;20.002;2023-05-09T08:28:47;99751.84;;;12.71;62.67
34921;BME280;21128;50.016;20.002;2023-05-09T08:31:15;99743.53;;;12.85;59.31
34921;BME280;21128;50.016;20.002;2023-05-09T08:33:42;99756.19;;;12.91;58.58
34921;BME280;21128;50.016;20.002;2023-05-09T08:36:09;99762.05;;;12.95;59.87
34921;BME280;21128;50.016;20.002;2023-05-09T08:38:36;99748.05;;;13.04;60.03
34921;BME280;21128;50.016;20.002;2023-05-09T08:41:06;99752.69;;;13.21;57.87
34921;BME280;21128;50.016;20.002;2023-05-09T08:43:33;99747.27;;;13.23;57.66
34921;BME280;21128;50.016;20.002;2023-05-09T08:46:08;99750.31;;;13.28;56.47
34921;BME280;21128;50.016;20.002;2023-05-09T08:48:36;99737.27;;;13.36;56.90
34921;BME280;21128;50.016;20.002;2023-05-09T08:51:05;99746.59;;;13.60;57.27
34921;BME280;21128;50.016;20.002;2023-05-09T08:53:33;99756.30;;;13.78;56.81
34921;BME280;21128;50.016;20.002;2023-05-09T08:56:02;99733.09;;;13.92;56.49
34921;BME280;21128;50.016;20.002;2023-05-09T08:58:30;99737.78;;;14.07;57.29
34921;BME280;21128;50.016;20.002;2023-05-09T09:00:59;99733.57;;;14.24;55.86
34921;BME280;21128;50.016;20.002;2023-05-09T09:03:30;99736.03;;;14.35;55.42
34921;BME280;21128;50.016;20.002;2023-05-09T09:05:57;99739.23;;;14.39;52.12
34921;BME280;21128;50.016;20.002;2023-05-09T09:08:26;99733.95;;;14.39;51.77
34921;BME280;21128;50.016;20.002;2023-05-09T09:10:53;99732.41;;;14.36;51.03
34921;BME280;21128;50.016;20.002;2023-05-09T09:13:21;99736.45;;;14.41;51.73
34921;BME280;21128;50.016;20.002;2023-05-09T09:15:50;99731.84;;;14.43;51.71
34921;BME280;21128;50.016;20.002;2023-05-09T09:18:24;99714.30;;;14.51;50.65
34921;BME280;21128;50.016;20.002;2023-05-09T09:20:57;99711.45;;;14.62;50.25
34921;BME280;21128;50.016;20.002;2023-05-09T09:23:26;99712.01;;;14.66;49.80
34921;BME280;21128;50.016;20.002;2023-05-09T09:26:02;99705.43;;;14.70;49.83
34921;BME280;21128;50.016;20.002;2023-05-09T09:28:32;99701.52;;;14.74;48.71
34921;BME280;21128;50.016;20.002;2023-05-09T09:31:00;99707.09;;;14.71;50.09
34921;BME280;21128;50.016;20.002;2023-05-09T09:33:28;99709.73;;;14.71;48.70
34921;BME280;21128;50.016;20.002;2023-05-09T09:35:56;99703.13;;;14.85;49.63
34921;BME280;21128;50.016;20.002;2023-05-09T09:38:23;99700.00;;;15.17;49.45
34921;BME280;21128;50.016;20.002;2023-05-09T09:43:17;99706.22;;;15.61;49.21
34921;BME280;21128;50.016;20.002;2023-05-09T09:45:48;99705.89;;;15.46;48.73
34921;BME280;21128;50.016;20.002;2023-05-09T09:48:16;99698.55;;;15.58;47.80
34921;BME280;21128;50.016;20.002;2023-05-09T09:50:43;99695.46;;;15.63;48.72
34921;BME280;21128;50.016;20.002;2023-05-09T09:53:12;99696.20;;;15.37;48.21
34921;BME280;21128;50.016;20.002;2023-05-09T09:55:50;99699.24;;;15.42;48.07
34921;BME280;21128;50.016;20.002;2023-05-09T09:58:19;99691.97;;;15.44;48.70
34921;BME280;21128;50.016;20.002;2023-05-09T10:01:23;99694.34;;;15.65;48.24
34921;BME280;21128;50.016;20.002;2023-05-09T10:03:50;99689.11;;;15.73;47.22
34921;BME280;21128;50.016;20.002;2023-05-09T10:06:17;99684.11;;;15.96;47.34
34921;BME280;21128;50.016;20.002;2023-05-09T10:08:44;99696.13;;;15.83;47.24
34921;BME280;21128;50.016;20.002;2023-05-09T10:11:14;99702.64;;;15.70;47.33
34921;BME280;21128;50.016;20.002;2023-05-09T10:13:42;99697.16;;;15.64;47.82
34921;BME280;21128;50.016;20.002;2023-05-09T10:16:10;99690.00;;;15.82;47.57
34921;BME280;21128;50.016;20.002;2023-05-09T10:18:40;99684.59;;;15.92;47.58
34921;BME280;21128;50.016;20.002;2023-05-09T10:21:10;99691.13;;;16.05;47.88
34921;BME280;21128;50.016;20.002;2023-05-09T10:23:42;99691.63;;;16.35;47.87
34921;BME280;21128;50.016;20.002;2023-05-09T10:26:17;99681.09;;;16.51;47.19
34921;BME280;21128;50.016;20.002;2023-05-09T10:28:52;99686.08;;;16.54;47.08
34921;BME280;21128;50.016;20.002;2023-05-09T10:31:24;99684.83;;;16.32;46.39
34921;BME280;21128;50.016;20.002;2023-05-09T10:33:53;99686.03;;;16.12;47.85
34921;BME280;21128;50.016;20.002;2023-05-09T10:36:21;99678.53;;;16.33;47.81
34921;BME280;21128;50.016;20.002;2023-05-09T10:38:52;99685.78;;;16.57;47.27
34921;BME280;21128;50.016;20.002;2023-05-09T10:41:21;99679.20;;;16.70;47.34
34921;BME280;21128;50.016;20.002;2023-05-09T10:43:48;99668.00;;;16.92;46.19
34921;BME280;21128;50.016;20.002;2023-05-09T10:46:15;99661.52;;;16.95;45.64
34921;BME280;21128;50.016;20.002;2023-05-09T10:48:43;99655.05;;;16.97;45.68
34921;BME280;21128;50.016;20.002;2023-05-09T10:51:11;99643.11;;;16.93;46.11
34921;BME280;21128;50.016;20.002;2023-05-09T10:53:43;99648.63;;;17.16;45.87
34921;BME280;21128;50.016;20.002;2023-05-09T10:56:24;99642.80;;;17.61;45.79
34921;BME280;21128;50.016;20.002;2023-05-09T10:58:52;99634.17;;;17.84;45.15
34921;BME280;21128;50.016;20.002;2023-05-09T11:01:37;99645.75;;;17.99;45.11
34921;BME280;21128;50.016;20.002;2023-05-09T11:04:09;99640.86;;;18.27;44.80
34921;BME280;21128;50.016;20.002;2023-05-09T11:06:43;99635.63;;;18.50;44.37
34921;BME280;21128;50.016;20.002;2023-05-09T11:11:56;99638.08;;;18.12;42.64
34921;BME280;21128;50.016;20.002;2023-05-09T11:24:47;99612.71;;;17.93;42.38
34921;BME280;21128;50.016;20.002;2023-05-09T11:27:25;99611.16;;;18.07;42.70
34921;BME280;21128;50.016;20.002;2023-05-09T11:29:54;99612.50;;;18.50;43.33
34921;BME280;21128;50.016;20.002;2023-05-09T11:32:32;99606.84;;;18.84;42.37
34921;BME280;21128;50.016;20.002;2023-05-09T11:35:07;99598.19;;;19.05;40.80
34921;BME280;21128;50.016;20.002;2023-05-09T11:38:04;99599.20;;;19.27;40.52
34921;BME280;21128;50.016;20.002;2023-05-09T11:40:33;99594.63;;;18.90;39.16
34921;BME280;21128;50.016;20.002;2023-05-09T11:43:00;99596.76;;;18.33;39.90
34921;BME280;21128;50.016;20.002;2023-05-09T11:45:29;99597.21;;;18.05;40.00
34921;BME280;21128;50.016;20.002;2023-05-09T11:47:57;99598.91;;;17.90;40.35
34921;BME280;21128;50.016;20.002;2023-05-09T11:50:26;99592.30;;;17.69;40.29
34921;BME280;21128;50.016;20.002;2023-05-09T11:52:53;99588.63;;;17.87;39.88
34921;BME280;21128;50.016;20.002;2023-05-09T11:55:21;99582.23;;;18.12;40.02
34921;BME280;21128;50.016;20.002;2023-05-09T11:57:50;99581.80;;;18.32;40.12
34921;BME280;21128;50.016;20.002;2023-05-09T12:00:19;99564.53;;;18.67;40.55
34921;BME280;21128;50.016;20.002;2023-05-09T12:02:46;99566.08;;;18.84;39.61
34921;BME280;21128;50.016;20.002;2023-05-09T12:05:16;99570.96;;;18.72;38.86
34921;BME280;21128;50.016;20.002;2023-05-09T12:07:44;99578.19;;;18.87;38.80
34921;BME280;21128;50.016;20.002;2023-05-09T12:10:19;99567.91;;;18.83;39.08
34921;BME280;21128;50.016;20.002;2023-05-09T12:12:51;99576.11;;;18.74;38.95
34921;BME280;21128;50.016;20.002;2023-05-09T12:15:18;99569.62;;;18.76;38.21
34921;BME280;21128;50.016;20.002;2023-05-09T12:17:47;99570.67;;;18.90;38.32
34921;BME280;21128;50.016;20.002;2023-05-09T12:20:14;99553.97;;;19.19;38.74
34921;BME280;21128;50.016;20.002;2023-05-09T12:22:44;99561.18;;;19.48;38.04
34921;BME280;21128;50.016;20.002;2023-05-09T12:25:18;99552.44;;;19.39;37.37
34921;BME280;21128;50.016;20.002;2023-05-09T12:27:45;99547.13;;;19.54;36.99
34921;BME280;21128;50.016;20.002;2023-05-09T12:30:12;99536.14;;;19.72;37.25
34921;BME280;21128;50.016;20.002;2023-05-09T12:32:41;99545.41;;;19.91;36.03
34921;BME280;21128;50.016;20.002;2023-05-09T12:35:09;99528.42;;;19.62;35.51
34921;BME280;21128;50.016;20.002;2023-05-09T12:37:36;99533.25;;;19.44;34.98
34921;BME280;21128;50.016;20.002;2023-05-09T12:40:09;99534.21;;;18.91;33.92
34921;BME280;21128;50.016;20.002;2023-05-09T12:42:41;99525.45;;;18.59;34.99
34921;BME280;21128;50.016;20.002;2023-05-09T12:45:09;99523.41;;;18.69;35.05
34921;BME280;21128;50.016;20.002;2023-05-09T12:47:37;99535.71;;;18.70;35.81
34921;BME280;21128;50.016;20.002;2023-05-09T12:50:05;99532.11;;;18.86;35.90
34921;BME280;21128;50.016;20.002;2023-05-09T12:52:37;99528.68;;;19.15;36.08
34921;BME280;21128;50.016;20.002;2023-05-09T12:55:06;99527.23;;;18.90;34.52
34921;BME280;21128;50.016;20.002;2023-05-09T12:57:34;99519.55;;;18.72;35.29
34921;BME280;21128;50.016;20.002;2023-05-09T13:00:04;99514.66;;;18.83;35.97
34921;BME280;21128;50.016;20.002;2023-05-09T13:02:37;99515.92;;;19.10;35.88
34921;BME280;21128;50.016;20.002;2023-05-09T13:05:12;99515.20;;;19.31;36.46
34921;BME280;21128;50.016;20.002;2023-05-09T13:07:45;99501.62;;;19.56;36.35
34921;BME280;21128;50.016;20.002;2023-05-09T13:10:19;99503.64;;;19.39;35.75
34921;BME280;21128;50.016;20.002;2023-05-09T13:12:49;99497.84;;;19.50;36.40
34921;BME280;21128;50.016;20.002;2023-05-09T13:15:18;99490.30;;;19.24;34.75
34921;BME280;21128;50.016;20.002;2023-05-09T13:17:47;99508.54;;;18.75;35.62
34921;BME280;21128;50.016;20.002;2023-05-09T13:20:15;99502.30;;;18.37;35.57
34921;BME280;21128;50.016;20.002;2023-05-09T13:22:43;99494.46;;;18.12;36.60
34921;BME280;21128;50.016;20.002;2023-05-09T13:25:11;99504.53;;;17.94;37.04